Time;durP1;ratioP1;P1;durP2;ratioP2;P2;SDS_P1;SDS_P2;PMS_P1;PMS_P2;Temp;Humidity;BMP_temperature;BMP_pressure;BME280_temperature;BME280_humidity;BME280_pressure;Samples;Min_cycle;Max_cycle;Signal;HPM_P1;HPM_P2
2021/09/13 00:02:08;;;;;;;5.05;2.72;;;;;;;14.56;100.00;101524.59;6210364;28;20046;-77
2021/09/13 00:05:10;;;;;;;3.67;2.30;;;;;;;14.51;100.00;101516.91;6225528;28;20057;-77
2021/09/13 00:08:11;;;;;;;4.00;2.38;;;;;;;14.46;100.00;101516.31;6226166;28;20471;-76
2021/09/13 00:11:13;;;;;;;5.32;3.28;;;;;;;14.43;100.00;101506.75;6225579;28;20045;-77
2021/09/13 00:14:15;;;;;;;3.55;2.35;;;;;;;14.41;100.00;101507.78;6225036;28;20058;-77
2021/09/13 00:17:17;;;;;;;5.63;2.58;;;;;;;14.43;100.00;101509.38;6225536;28;20050;-78
2021/09/13 00:20:18;;;;;;;3.83;2.15;;;;;;;14.46;100.00;101506.56;6225266;28;20425;-77
2021/09/13 00:23:20;;;;;;;4.32;2.33;;;;;;;14.49;100.00;101510.88;6225573;28;20061;-77
2021/09/13 00:26:21;;;;;;;6.30;2.88;;;;;;;14.54;100.00;101502.69;6214840;28;20054;-78
2021/09/13 00:29:24;;;;;;;5.32;2.78;;;;;;;14.56;100.00;101509.56;6222515;28;20402;-78
2021/09/13 00:32:25;;;;;;;3.53;2.25;;;;;;;14.54;100.00;101510.63;6222495;28;20050;-78
2021/09/13 00:35:27;;;;;;;5.18;3.17;;;;;;;14.45;100.00;101515.47;6222468;28;20046;-78
2021/09/13 00:38:29;;;;;;;3.33;2.55;;;;;;;14.40;100.00;101511.38;6222465;28;20061;-78
2021/09/13 00:41:30;;;;;;;3.60;2.53;;;;;;;14.36;100.00;101508.06;6222392;28;20060;-78
2021/09/13 00:44:33;;;;;;;5.38;3.03;;;;;;;14.34;100.00;101507.25;6222123;28;20421;-78
2021/09/13 00:47:34;;;;;;;3.45;2.53;;;;;;;14.37;100.00;101515.03;6222352;28;20072;-78
2021/09/13 00:50:36;;;;;;;3.17;2.40;;;;;;;14.38;100.00;101508.81;6222715;28;20497;-78
2021/09/13 00:53:37;;;;;;;4.07;2.65;;;;;;;14.40;100.00;101508.72;6221973;28;20049;-78
2021/09/13 00:56:43;;;;;;;3.80;2.63;;;;;;;14.36;100.00;101507.19;6222251;28;20490;-78
2021/09/13 00:59:45;;;;;;;4.05;2.50;;;;;;;14.30;100.00;101510.16;6221429;28;20060;-78
2021/09/13 01:02:47;;;;;;;3.13;2.38;;;;;;;14.21;100.00;101504.47;6218996;28;20057;-78
2021/09/13 01:05:49;;;;;;;3.08;2.45;;;;;;;14.18;100.00;101504.66;6216130;28;20053;-77
2021/09/13 01:08:51;;;;;;;5.07;2.88;;;;;;;14.24;100.00;101500.81;6221692;28;20049;-77
2021/09/13 01:11:52;;;;;;;6.00;2.33;;;;;;;14.32;100.00;101503.03;6218954;28;20129;-77
2021/09/13 01:14:55;;;;;;;5.88;2.17;;;;;;;14.30;100.00;101503.09;6218992;28;20043;-77
2021/09/13 01:17:56;;;;;;;4.22;2.25;;;;;;;14.34;100.00;101503.78;6226676;28;20058;-77
2021/09/13 01:20:58;;;;;;;3.55;2.15;;;;;;;14.36;100.00;101502.75;6226926;28;20505;-77
2021/09/13 01:24:00;;;;;;;6.22;2.22;;;;;;;14.37;100.00;101508.91;6226534;28;20050;-78
2021/09/13 01:27:04;;;;;;;3.40;2.22;;;;;;;14.35;100.00;101502.81;6218188;28;20050;-78
2021/09/13 01:30:07;;;;;;;2.22;1.52;;;;;;;14.30;100.00;101511.03;6226848;28;20052;-78
2021/09/13 01:33:08;;;;;;;2.90;1.75;;;;;;;14.20;100.00;101510.69;6226505;28;20050;-77
2021/09/13 01:36:09;;;;;;;2.95;1.95;;;;;;;14.18;100.00;101502.00;6226654;28;20053;-78
2021/09/13 01:39:12;;;;;;;4.82;2.15;;;;;;;14.22;100.00;101510.63;6226462;28;20512;-78
2021/09/13 01:42:14;;;;;;;3.90;1.83;;;;;;;14.20;100.00;101510.69;6226633;28;20061;-78
2021/09/13 01:45:15;;;;;;;2.05;1.77;;;;;;;14.16;100.00;101509.16;6217543;28;20453;-78
2021/09/13 01:48:16;;;;;;;3.67;1.90;;;;;;;14.14;100.00;101515.47;6226448;28;20049;-77
2021/09/13 01:51:18;;;;;;;2.55;2.03;;;;;;;14.05;100.00;101514.19;6226576;28;20072;-77
2021/09/13 01:54:21;;;;;;;5.05;2.97;;;;;;;13.98;100.00;101507.53;6225222;28;20497;-78
2021/09/13 01:57:22;;;;;;;2.95;2.17;;;;;;;13.90;100.00;101523.00;6208657;28;20445;-77
2021/09/13 02:00:23;;;;;;;4.18;2.55;;;;;;;13.83;100.00;101525.09;6201801;28;20046;-77
2021/09/13 02:03:25;;;;;;;3.70;2.38;;;;;;;13.75;100.00;101521.16;6201506;28;20047;-77
2021/09/13 02:06:26;;;;;;;3.05;2.30;;;;;;;13.70;100.00;101522.25;6201412;28;20057;-77
2021/09/13 02:09:29;;;;;;;5.57;2.40;;;;;;;13.66;100.00;101523.34;6201608;28;20140;-77
2021/09/13 02:12:31;;;;;;;3.70;2.10;;;;;;;13.65;100.00;101516.38;6201545;28;20050;-77
2021/09/13 02:15:32;;;;;;;4.78;2.30;;;;;;;13.64;100.00;101524.41;6200130;28;20495;-77
2021/09/13 02:18:34;;;;;;;3.97;2.45;;;;;;;13.60;100.00;101522.84;6201257;28;20421;-77
2021/09/13 02:21:35;;;;;;;3.17;1.95;;;;;;;13.54;100.00;101529.31;6201207;28;20058;-77
2021/09/13 02:24:38;;;;;;;3.58;2.40;;;;;;;13.51;100.00;101531.25;6200798;28;20053;-77
2021/09/13 02:27:40;;;;;;;5.28;2.28;;;;;;;13.44;100.00;101533.34;6201131;28;20050;-78
2021/09/13 02:30:42;;;;;;;4.35;1.92;;;;;;;13.49;100.00;101535.75;6200922;28;20077;-78
2021/09/13 02:33:43;;;;;;;6.25;2.38;;;;;;;13.52;100.00;101533.81;6200661;28;20051;-78
2021/09/13 02:36:45;;;;;;;3.00;1.83;;;;;;;13.56;100.00;101535.34;6201110;28;20065;-78
2021/09/13 02:39:47;;;;;;;3.75;2.13;;;;;;;13.59;100.00;101535.22;6200795;28;20053;-78
2021/09/13 02:42:49;;;;;;;4.35;2.70;;;;;;;13.62;100.00;101532.38;6200460;28;20423;-78
2021/09/13 02:45:50;;;;;;;3.92;2.58;;;;;;;13.66;100.00;101538.34;6200610;28;20051;-78
2021/09/13 02:48:52;;;;;;;3.85;2.60;;;;;;;13.64;100.00;101535.81;6200870;28;20669;-77
2021/09/13 02:51:53;;;;;;;4.03;2.55;;;;;;;13.55;100.00;101536.28;6200647;28;20046;-78
2021/09/13 02:54:55;;;;;;;5.78;2.42;;;;;;;13.55;100.00;101546.00;6200190;28;20498;-78
2021/09/13 02:57:57;;;;;;;2.88;2.20;;;;;;;13.58;100.00;101537.91;6200755;28;20050;-78
2021/09/13 03:00:58;;;;;;;4.47;2.35;;;;;;;13.59;100.00;101537.00;6200305;28;20061;-78
2021/09/13 03:03:59;;;;;;;4.78;2.28;;;;;;;13.59;100.00;101543.13;6200077;28;20054;-77
2021/09/13 03:07:01;;;;;;;2.70;1.90;;;;;;;13.61;100.00;101533.31;6200366;28;20050;-78
2021/09/13 03:10:04;;;;;;;4.38;2.50;;;;;;;13.62;100.00;101534.16;6200190;28;20054;-78
2021/09/13 03:13:06;;;;;;;3.58;1.98;;;;;;;13.66;100.00;101530.44;6200237;28;20055;-77
2021/09/13 03:16:07;;;;;;;3.58;1.83;;;;;;;13.68;100.00;101529.44;6199833;28;20050;-78
2021/09/13 03:19:08;;;;;;;2.42;1.80;;;;;;;13.72;100.00;101535.41;6200102;28;20046;-78
2021/09/13 03:22:10;;;;;;;2.55;1.67;;;;;;;13.74;100.00;101525.59;6200061;28;20513;-77
2021/09/13 03:25:13;;;;;;;2.47;1.85;;;;;;;13.75;100.00;101529.94;6199271;28;20061;-78
2021/09/13 03:28:14;;;;;;;4.15;2.20;;;;;;;13.74;100.00;101532.66;6209939;28;20061;-77
2021/09/13 03:31:15;;;;;;;2.35;1.75;;;;;;;13.72;100.00;101530.13;6215658;28;20445;-77
2021/09/13 03:34:17;;;;;;;3.28;2.15;;;;;;;13.71;100.00;101525.75;6215766;28;20051;-77
2021/09/13 03:37:18;;;;;;;3.30;1.92;;;;;;;13.75;100.00;101522.00;6221068;28;20057;-78
2021/09/13 03:40:21;;;;;;;4.13;2.03;;;;;;;13.78;100.00;101529.78;6218488;28;20050;-78
2021/09/13 03:43:22;;;;;;;2.92;1.70;;;;;;;13.76;100.00;101517.56;6215336;28;20413;-78
2021/09/13 03:46:24;;;;;;;4.82;2.55;;;;;;;13.77;100.00;101520.16;6223406;28;20058;-78
2021/09/13 03:49:25;;;;;;;2.28;1.70;;;;;;;13.80;100.00;101517.31;6223788;28;20050;-78
2021/09/13 03:52:26;;;;;;;2.85;1.88;;;;;;;13.79;100.00;101515.63;6223481;28;20049;-78
2021/09/13 03:55:29;;;;;;;5.55;2.08;;;;;;;13.78;100.00;101518.38;6219129;28;20050;-78
2021/09/13 03:58:30;;;;;;;6.82;2.25;;;;;;;13.77;100.00;101514.88;6219640;28;20054;-77
2021/09/13 04:01:32;;;;;;;3.25;1.90;;;;;;;13.74;100.00;101517.66;6223442;28;20057;-77
2021/09/13 04:04:34;;;;;;;2.92;1.60;;;;;;;13.71;100.00;101521.31;6222965;28;20049;-77
2021/09/13 04:07:40;;;;;;;2.60;1.80;;;;;;;13.71;100.00;101521.31;6223075;28;20058;-77
2021/09/13 04:10:51;;;;;;;2.90;1.77;;;;;;;13.67;100.00;101525.09;6223201;28;20058;-77
2021/09/13 04:13:53;;;;;;;2.72;1.80;;;;;;;13.59;100.00;101537.84;6222790;28;20046;-78
2021/09/13 04:16:55;;;;;;;3.10;1.83;;;;;;;13.60;100.00;101528.97;6222910;28;20054;-77
2021/09/13 04:19:56;;;;;;;4.50;2.42;;;;;;;13.64;100.00;101525.25;6222828;28;20050;-77
2021/09/13 04:22:58;;;;;;;2.92;2.15;;;;;;;13.63;100.00;101528.81;6223015;28;20053;-77
2021/09/13 04:26:00;;;;;;;2.78;2.20;;;;;;;13.68;100.00;101524.16;6222456;28;20049;-78
2021/09/13 04:29:02;;;;;;;4.28;2.35;;;;;;;13.71;100.00;101531.88;6222789;28;20061;-78
2021/09/13 04:32:04;;;;;;;3.33;1.85;;;;;;;13.70;100.00;101532.81;6222828;28;20050;-78
2021/09/13 04:35:06;;;;;;;4.88;2.40;;;;;;;13.68;100.00;101537.34;6222492;28;20046;-77
2021/09/13 04:38:07;;;;;;;3.45;1.90;;;;;;;13.74;100.00;101536.16;6221901;28;20560;-77
2021/09/13 04:41:10;;;;;;;2.85;1.80;;;;;;;13.75;100.00;101532.56;6222755;28;20053;-78
2021/09/13 04:44:11;;;;;;;2.20;1.58;;;;;;;13.76;100.00;101530.78;6222459;28;20053;-77
2021/09/13 04:47:12;;;;;;;3.25;1.77;;;;;;;13.81;100.00;101534.91;6222372;28;20061;-78
2021/09/13 04:50:14;;;;;;;2.30;1.70;;;;;;;13.83;100.00;101540.09;6222531;28;20045;-77
2021/09/13 04:53:15;;;;;;;2.25;1.88;;;;;;;13.84;100.00;101534.72;6222601;28;20061;-78
2021/09/13 04:56:17;;;;;;;4.15;2.33;;;;;;;13.85;100.00;101528.53;6222236;28;20046;-78
2021/09/13 04:59:19;;;;;;;3.85;2.10;;;;;;;13.78;100.00;101528.94;6222259;28;20056;-77
2021/09/13 05:02:20;;;;;;;3.28;2.22;;;;;;;13.74;100.00;101530.88;6222931;28;20502;-78
2021/09/13 05:05:21;;;;;;;5.18;2.05;;;;;;;13.77;100.00;101532.50;6221798;28;20056;-78
2021/09/13 05:08:23;;;;;;;2.60;2.03;;;;;;;13.80;100.00;101538.47;6222357;28;20068;-78
2021/09/13 05:11:25;;;;;;;2.78;2.10;;;;;;;13.80;100.00;101541.09;6222255;28;20057;-78
2021/09/13 05:14:27;;;;;;;6.47;2.67;;;;;;;13.84;100.00;101539.16;6221446;28;20416;-77
2021/09/13 05:17:28;;;;;;;8.77;2.90;;;;;;;13.86;100.00;101539.94;6222229;28;20129;-78
2021/09/13 05:20:30;;;;;;;5.07;2.95;;;;;;;13.87;100.00;101533.72;6221913;28;20412;-78
2021/09/13 05:23:31;;;;;;;4.57;2.60;;;;;;;13.89;100.00;101534.47;6222165;28;20050;-78
2021/09/13 05:26:34;;;;;;;6.55;3.25;;;;;;;13.90;100.00;101531.75;6221548;28;20053;-78
2021/09/13 05:29:36;;;;;;;7.30;3.58;;;;;;;13.88;100.00;101535.41;6222120;28;20054;-78
2021/09/13 05:32:37;;;;;;;6.97;3.33;;;;;;;13.76;100.00;101536.91;6222267;28;20057;-78
2021/09/13 05:35:39;;;;;;;6.68;3.42;;;;;;;13.79;100.00;101543.84;6215121;28;20522;-78
2021/09/13 05:38:40;;;;;;;7.63;4.00;;;;;;;13.78;100.00;101547.44;6213863;28;20046;-78
2021/09/13 05:41:44;;;;;;;7.78;3.20;;;;;;;13.78;100.00;101550.91;6220140;28;20054;-78
2021/09/13 05:44:46;;;;;;;6.60;3.53;;;;;;;13.69;100.00;101551.41;6221832;28;20053;-78
2021/09/13 05:47:47;;;;;;;8.95;4.65;;;;;;;13.68;100.00;101549.72;6212668;28;20074;-78
2021/09/13 05:50:49;;;;;;;10.82;3.95;;;;;;;13.70;100.00;101556.59;6222543;28;20075;-79
2021/09/13 05:53:50;;;;;;;7.93;4.28;;;;;;;13.68;100.00;101557.63;6209074;28;20061;-78
2021/09/13 05:56:53;;;;;;;8.52;4.10;;;;;;;13.67;100.00;101556.78;6220160;28;20054;-78
2021/09/13 05:59:54;;;;;;;9.88;4.18;;;;;;;13.67;100.00;101559.44;6217770;28;20497;-78
2021/09/13 06:02:56;;;;;;;7.90;4.35;;;;;;;13.64;100.00;101562.22;6226171;28;20052;-78
2021/09/13 06:05:57;;;;;;;7.53;4.18;;;;;;;13.67;100.00;101561.19;6226075;28;20053;-78
2021/09/13 06:08:58;;;;;;;8.15;3.97;;;;;;;13.69;100.00;101562.81;6226088;28;20421;-78
2021/09/13 06:12:01;;;;;;;12.93;4.50;;;;;;;13.73;100.00;101560.88;6217994;28;20057;-78
2021/09/13 06:15:03;;;;;;;9.90;3.75;;;;;;;13.80;100.00;101564.03;6225708;28;20054;-78
2021/09/13 06:18:04;;;;;;;8.10;4.25;;;;;;;13.85;100.00;101565.50;6225832;28;20050;-78
2021/09/13 06:21:05;;;;;;;7.32;3.95;;;;;;;13.90;100.00;101570.56;6225752;28;20497;-78
2021/09/13 06:24:07;;;;;;;8.82;3.83;;;;;;;13.83;100.00;101585.00;6225442;28;20058;-78
2021/09/13 06:27:10;;;;;;;7.35;3.63;;;;;;;13.91;100.00;101586.31;6241271;22;20057;-76
2021/09/13 06:30:12;;;;;;;7.22;3.72;;;;;;;13.86;100.00;101591.00;6225985;28;20050;-75
2021/09/13 06:33:13;;;;;;;10.82;4.40;;;;;;;13.91;100.00;101591.59;6225805;28;20054;-76
2021/09/13 06:36:15;;;;;;;5.97;3.35;;;;;;;13.87;100.00;101586.56;6202420;28;20046;-76
2021/09/13 06:39:16;;;;;;;6.70;3.90;;;;;;;13.76;100.00;101600.31;6201438;28;20046;-76
2021/09/13 06:42:19;;;;;;;9.32;4.15;;;;;;;13.69;100.00;101605.09;6201249;28;20149;-76
2021/09/13 06:45:22;;;;;;;8.65;3.78;;;;;;;13.81;100.00;101605.41;6200985;28;20413;-76
2021/09/13 06:48:24;;;;;;;10.65;4.15;;;;;;;13.88;100.00;101606.75;6200997;28;20056;-76
2021/09/13 06:51:25;;;;;;;6.90;3.95;;;;;;;13.95;100.00;101606.34;6201345;28;20046;-76
2021/09/13 06:54:27;;;;;;;8.00;3.72;;;;;;;14.00;100.00;101607.91;6201866;28;20058;-77
2021/09/13 06:57:30;;;;;;;7.38;3.60;;;;;;;14.00;100.00;101598.19;6201155;28;20109;-76
2021/09/13 07:00:32;;;;;;;8.93;3.78;;;;;;;14.01;100.00;101607.81;6200957;28;20056;-75
2021/09/13 07:03:34;;;;;;;7.45;3.25;;;;;;;14.05;100.00;101616.44;6204955;28;20502;-76
2021/09/13 07:06:35;;;;;;;7.63;3.90;;;;;;;14.15;100.00;101623.78;6205709;28;20054;-76
2021/09/13 07:09:37;;;;;;;8.80;3.85;;;;;;;14.21;100.00;101631.34;6203390;28;20394;-77
2021/09/13 07:12:39;;;;;;;12.05;3.70;;;;;;;14.27;100.00;101629.34;6203109;28;20053;-75
2021/09/13 07:15:41;;;;;;;11.15;4.70;;;;;;;14.23;100.00;101626.00;6203411;28;20422;-76
2021/09/13 07:18:42;;;;;;;7.25;3.63;;;;;;;14.26;100.00;101638.19;6204155;28;20054;-76
2021/09/13 07:21:43;;;;;;;8.52;3.53;;;;;;;14.30;100.00;101648.50;6204961;28;20057;-76
2021/09/13 07:24:45;;;;;;;8.45;3.95;;;;;;;14.33;100.00;101636.94;6201906;28;20093;-76
2021/09/13 07:27:47;;;;;;;14.93;4.53;;;;;;;14.40;100.00;101633.88;6201150;28;20050;-76
2021/09/13 07:30:49;;;;;;;9.98;4.18;;;;;;;14.46;100.00;101649.41;6218419;28;20053;-76
2021/09/13 07:33:50;;;;;;;8.95;4.07;;;;;;;14.48;100.00;101651.97;6225250;28;20060;-77
2021/09/13 07:36:51;;;;;;;10.43;4.18;;;;;;;14.52;100.00;101650.88;6224666;28;20049;-76
2021/09/13 07:39:53;;;;;;;10.50;3.60;;;;;;;14.54;100.00;101654.31;6213961;28;20046;-76
2021/09/13 07:42:55;;;;;;;7.15;4.10;;;;;;;14.59;100.00;101654.03;6211555;28;20057;-76
2021/09/13 07:45:57;;;;;;;8.93;4.57;;;;;;;14.60;100.00;101658.38;6223635;28;20038;-77
2021/09/13 07:48:59;;;;;;;7.55;3.83;;;;;;;14.64;100.00;101659.94;6223503;28;20072;-77
2021/09/13 07:52:00;;;;;;;17.02;4.68;;;;;;;14.71;100.00;101658.63;6223886;28;20107;-77
2021/09/13 07:55:02;;;;;;;12.35;4.50;;;;;;;14.66;100.00;101665.97;6223275;28;20394;-77
2021/09/13 07:58:04;;;;;;;11.40;4.68;;;;;;;14.60;100.00;101659.25;6223752;28;20050;-76
2021/09/13 08:01:06;;;;;;;13.90;4.60;;;;;;;14.58;100.00;101660.25;6223625;28;20072;-76
2021/09/13 08:04:09;;;;;;;15.15;4.97;;;;;;;14.57;100.00;101661.19;6223266;28;20054;-76
2021/09/13 08:07:11;;;;;;;10.75;4.63;;;;;;;14.65;100.00;101673.06;6223028;28;20049;-77
2021/09/13 08:10:12;;;;;;;10.02;4.22;;;;;;;14.72;100.00;101673.59;6223913;28;20041;-76
2021/09/13 08:13:15;;;;;;;12.48;5.03;;;;;;;14.75;100.00;101677.84;6222644;28;20057;-78
2021/09/13 08:16:17;;;;;;;12.48;4.78;;;;;;;14.82;100.00;101676.56;6216878;28;20046;-76
2021/09/13 08:19:18;;;;;;;9.52;5.03;;;;;;;14.86;100.00;101680.75;6206594;28;20057;-76
2021/09/13 08:22:19;;;;;;;9.65;4.38;;;;;;;14.91;100.00;101695.44;6222711;28;20054;-77
2021/09/13 08:25:21;;;;;;;9.80;4.93;;;;;;;14.98;100.00;101694.13;6199793;28;20069;-76
2021/09/13 08:28:24;;;;;;;9.05;4.65;;;;;;;15.02;100.00;101702.75;6198175;28;20054;-76
2021/09/13 08:31:25;;;;;;;11.85;4.85;;;;;;;15.05;100.00;101696.44;6200784;28;20053;-75
2021/09/13 08:34:27;;;;;;;8.65;4.10;;;;;;;15.09;100.00;101706.78;6222189;28;20417;-75
2021/09/13 08:37:28;;;;;;;10.02;4.68;;;;;;;15.13;100.00;101718.91;6222712;28;20050;-76
2021/09/13 08:40:29;;;;;;;9.90;4.95;;;;;;;15.23;100.00;101721.88;6219310;28;20057;-76
2021/09/13 08:43:33;;;;;;;11.43;5.28;;;;;;;15.16;100.00;101725.78;6222333;28;20053;-75
2021/09/13 08:46:44;;;;;;;10.52;4.85;;;;;;;15.14;100.00;101723.25;6221843;28;20049;-74
2021/09/13 08:49:47;;;;;;;10.65;5.13;;;;;;;15.17;100.00;101720.44;6222455;28;20053;-77
2021/09/13 08:52:49;;;;;;;12.80;5.47;;;;;;;15.18;100.00;101729.22;6201139;28;20679;-78
2021/09/13 08:55:51;;;;;;;9.93;4.50;;;;;;;15.21;100.00;101726.38;6209799;28;20072;-78
2021/09/13 08:58:55;;;;;;;10.23;5.10;;;;;;;15.26;100.00;101734.94;6222277;28;20062;-76
2021/09/13 09:01:57;;;;;;;18.80;9.55;;;;;;;15.24;100.00;101731.50;6222577;28;20528;-76
2021/09/13 09:05:01;;;;;;;8.95;4.20;;;;;;;15.29;100.00;101734.75;6221926;28;20529;-75
2021/09/13 09:08:03;;;;;;;9.30;4.10;;;;;;;15.33;100.00;101738.09;6221983;28;20057;-76
2021/09/13 09:11:05;;;;;;;10.43;4.38;;;;;;;15.36;100.00;101738.78;6222503;28;20050;-75
2021/09/13 09:14:24;;;;;;;14.07;5.15;;;;;;;15.39;100.00;101740.38;6221736;28;20050;-75
2021/09/13 09:17:27;;;;;;;;;;;;;;;15.42;100.00;101746.34;6222697;28;20046;-75
2021/09/13 09:20:40;;;;;;;9.85;4.20;;;;;;;15.44;100.00;101741.84;6221006;28;19922;-75
2021/09/13 09:23:55;;;;;;;9.63;4.45;;;;;;;15.51;100.00;101739.66;6221991;28;20050;-76
2021/09/13 09:27:02;;;;;;;9.93;4.13;;;;;;;15.62;100.00;101745.19;6225297;28;20053;-76
2021/09/13 09:30:12;;;;;;;8.77;4.25;;;;;;;15.66;100.00;101745.91;6226074;28;20060;-76
2021/09/13 09:33:16;;;;;;;9.20;4.38;;;;;;;15.67;100.00;101745.81;6226996;28;20050;-76
2021/09/13 09:36:17;;;;;;;9.50;4.28;;;;;;;15.72;100.00;101741.09;6226793;28;20428;-76
2021/09/13 09:39:18;;;;;;;10.15;4.47;;;;;;;15.79;100.00;101743.38;6226670;28;20494;-76
2021/09/13 09:42:31;;;;;;;9.20;4.35;;;;;;;15.80;100.00;101739.78;6226730;28;20046;-75
2021/09/13 09:45:38;;;;;;;8.82;4.40;;;;;;;15.79;100.00;101744.22;6225931;28;20079;-76
2021/09/13 09:48:40;;;;;;;11.38;5.70;;;;;;;15.84;100.00;101746.59;6226438;28;20046;-75
2021/09/13 09:51:45;;;;;;;9.70;4.53;;;;;;;15.87;100.00;101741.13;6226391;28;20049;-75
2021/09/13 09:54:48;;;;;;;10.20;4.32;;;;;;;16.02;100.00;101747.31;6226130;28;20052;-76
2021/09/13 09:58:05;;;;;;;8.90;4.50;;;;;;;16.15;100.00;101750.94;6226167;28;20089;-76
2021/09/13 10:01:08;;;;;;;9.48;4.00;;;;;;;16.13;100.00;101753.69;6226058;28;20421;-76
2021/09/13 10:04:20;;;;;;;8.52;4.05;;;;;;;16.16;100.00;101753.47;6225747;28;20405;-76
2021/09/13 10:07:23;;;;;;;11.73;6.22;;;;;;;16.33;100.00;101754.25;6225850;28;20417;-76
2021/09/13 10:10:28;;;;;;;8.43;4.50;;;;;;;16.32;100.00;101748.09;6225716;28;20413;-76
2021/09/13 10:13:30;;;;;;;8.25;3.97;;;;;;;16.28;100.00;101748.38;6225657;28;20456;-75
2021/09/13 10:16:33;;;;;;;9.38;4.00;;;;;;;16.22;100.00;101744.31;6225601;28;20049;-75
2021/09/13 10:19:35;;;;;;;7.15;3.90;;;;;;;16.36;100.00;101743.47;6225947;28;20512;-75
2021/09/13 10:22:39;;;;;;;11.05;4.05;;;;;;;16.43;100.00;101739.47;6225626;28;20057;-76
2021/09/13 10:25:40;;;;;;;7.25;3.35;;;;;;;16.53;100.00;101740.59;6225237;28;20057;-76
2021/09/13 10:29:11;;;;;;;7.82;3.90;;;;;;;16.74;100.00;101743.75;6213493;28;20049;-76
2021/09/13 10:32:15;;;;;;;9.07;4.05;;;;;;;16.83;100.00;101735.19;6210791;28;20076;-76
2021/09/13 10:35:18;;;;;;;6.85;3.72;;;;;;;16.84;100.00;101741.34;6201263;28;20055;-76
2021/09/13 10:38:39;;;;;;;6.95;3.25;;;;;;;16.81;100.00;101736.25;6200717;28;20057;-76
2021/09/13 10:41:59;;;;;;;6.80;3.40;;;;;;;16.92;100.00;101731.09;6201283;28;20050;-76
2021/09/13 10:45:24;;;;;;;9.45;3.80;;;;;;;17.13;100.00;101734.19;6200543;28;20528;-76
2021/09/13 10:48:26;;;;;;;6.07;3.50;;;;;;;17.18;100.00;101729.44;6193377;28;20054;-75
2021/09/13 10:51:28;;;;;;;9.65;4.15;;;;;;;17.05;100.00;101734.69;6200623;28;20054;-76
2021/09/13 10:54:29;;;;;;;11.60;4.13;;;;;;;17.04;100.00;101734.78;6200636;28;20047;-76
2021/09/13 10:57:55;;;;;;;6.45;3.88;;;;;;;17.07;100.00;101732.75;6200408;28;20409;-76
2021/09/13 11:01:02;;;;;;;5.85;3.35;;;;;;;17.04;100.00;101719.69;6200761;28;20054;-76
2021/09/13 11:04:06;;;;;;;6.53;3.22;;;;;;;16.95;100.00;101720.28;6200268;28;20058;-76
2021/09/13 11:07:07;;;;;;;9.10;3.50;;;;;;;16.90;100.00;101720.59;6200312;28;20046;-76
2021/09/13 11:10:09;;;;;;;8.13;3.47;;;;;;;16.79;100.00;101709.78;6200427;28;20057;-75
2021/09/13 11:13:10;;;;;;;5.95;3.17;;;;;;;16.82;100.00;101714.06;6200335;28;20077;-76
2021/09/13 11:16:16;;;;;;;7.65;3.78;;;;;;;16.89;100.00;101705.59;6199754;28;20053;-76
2021/09/13 11:19:20;;;;;;;5.32;3.10;;;;;;;17.34;100.00;101700.88;6200422;28;20508;-76
2021/09/13 11:22:22;;;;;;;8.57;3.50;;;;;;;17.94;98.46;101696.84;6199942;28;20054;-76
2021/09/13 11:25:23;;;;;;;7.47;3.13;;;;;;;18.13;97.62;101707.09;6199602;28;20402;-76
2021/09/13 11:28:24;;;;;;;5.28;2.50;;;;;;;18.04;96.78;101705.91;6199809;28;20097;-76
2021/09/13 11:31:27;;;;;;;4.28;2.42;;;;;;;17.84;95.80;101706.41;6199365;28;20050;-75
2021/09/13 11:34:39;;;;;;;4.85;2.92;;;;;;;17.70;98.26;101708.19;6199331;28;20046;-75
2021/09/13 11:37:40;;;;;;;4.15;2.47;;;;;;;17.57;96.50;101714.44;6199636;28;20562;-77
2021/09/13 11:40:42;;;;;;;3.80;2.35;;;;;;;17.43;97.58;101700.25;6199206;28;20073;-76
2021/09/13 11:43:57;;;;;;;8.13;2.90;;;;;;;17.36;100.00;101698.97;6199392;28;20632;-76
2021/09/13 11:47:00;;;;;;;6.15;2.67;;;;;;;17.28;99.89;101701.28;6199028;28;20054;-76
2021/09/13 11:50:05;;;;;;;3.20;1.98;;;;;;;17.22;99.15;101697.25;6199407;28;20394;-76
2021/09/13 11:53:13;;;;;;;4.38;2.42;;;;;;;17.22;99.88;101699.06;6199161;28;20057;-75
2021/09/13 11:56:15;;;;;;;3.22;2.08;;;;;;;17.25;99.92;101702.34;6199082;28;20046;-76
2021/09/13 11:59:20;;;;;;;2.95;1.85;;;;;;;17.23;99.10;101696.28;6199239;28;20509;-76
2021/09/13 12:02:22;;;;;;;5.95;2.50;;;;;;;17.23;98.56;101703.41;6199019;28;20046;-76
2021/09/13 12:05:27;;;;;;;3.42;2.25;;;;;;;17.28;97.52;101695.97;6198680;28;20054;-75
2021/09/13 12:08:28;;;;;;;4.13;2.08;;;;;;;17.25;99.34;101691.72;6198827;28;20054;-76
2021/09/13 12:11:31;;;;;;;6.05;2.00;;;;;;;17.28;99.42;101695.97;6198999;28;20073;-76
2021/09/13 12:14:33;;;;;;;3.90;1.90;;;;;;;17.35;99.07;101697.28;6198521;28;20046;-75
2021/09/13 12:17:38;;;;;;;8.60;2.35;;;;;;;17.31;97.94;101689.63;6198665;28;20054;-76
2021/09/13 12:20:42;;;;;;;2.92;2.00;;;;;;;17.27;97.69;101688.97;6198576;28;20050;-75
2021/09/13 12:23:54;;;;;;;3.50;1.60;;;;;;;17.33;98.10;101693.88;6198386;28;20054;-75
2021/09/13 12:26:56;;;;;;;6.70;1.83;;;;;;;17.34;96.34;101692.06;6260650;22;20049;-75
2021/09/13 12:30:01;;;;;;;3.72;2.03;;;;;;;17.37;97.39;101698.03;6271901;28;20049;-75
2021/09/13 12:33:05;;;;;;;3.65;2.00;;;;;;;17.35;97.08;101694.63;6271789;28;20056;-76
2021/09/13 12:36:16;;;;;;;5.18;2.13;;;;;;;17.43;97.25;101692.28;6254248;28;20042;-76
2021/09/13 12:39:17;;;;;;;4.15;2.30;;;;;;;17.42;96.02;101692.41;6246896;28;20053;-76
2021/09/13 12:42:26;;;;;;;3.97;1.83;;;;;;;17.39;96.26;101692.59;6247030;28;20492;-75
2021/09/13 12:45:29;;;;;;;;;;;;;;;17.46;96.38;101697.41;6247159;28;20424;-76
2021/09/13 12:48:31;;;;;;;3.78;1.60;;;;;;;17.52;95.77;101688.16;6246700;28;19925;-76
2021/09/13 12:51:35;;;;;;;4.50;2.03;;;;;;;17.54;95.04;101682.75;6246724;28;20049;-76
2021/09/13 12:54:37;;;;;;;3.10;2.08;;;;;;;17.63;95.42;101677.66;6246765;28;20049;-75
2021/09/13 12:57:38;;;;;;;1.80;1.38;;;;;;;17.58;93.57;101677.13;6246626;28;20056;-76
2021/09/13 13:00:40;;;;;;;3.70;1.70;;;;;;;17.57;94.77;101680.72;6246408;28;20160;-76
2021/09/13 13:03:58;;;;;;;2.30;1.77;;;;;;;17.57;94.92;101679.88;6246332;28;20439;-76
2021/09/13 13:07:06;;;;;;;2.97;1.98;;;;;;;17.58;95.06;101681.59;6246524;28;20049;-76
2021/09/13 13:10:08;;;;;;;1.85;1.45;;;;;;;17.53;90.16;101679.22;6246615;28;20489;-76
2021/09/13 13:13:10;;;;;;;4.70;1.67;;;;;;;17.48;91.29;101670.72;6246582;28;20442;-76
2021/09/13 13:16:11;;;;;;;4.43;2.15;;;;;;;17.32;93.04;101667.41;6246117;28;20456;-75
2021/09/13 13:19:16;;;;;;;3.05;1.77;;;;;;;17.43;94.84;101676.34;6246698;28;20050;-76
2021/09/13 13:22:18;;;;;;;2.85;1.77;;;;;;;17.31;93.19;101666.56;6246186;28;20136;-76
2021/09/13 13:25:19;;;;;;;4.28;1.55;;;;;;;17.25;93.30;101662.47;6246162;28;20050;-76
2021/09/13 13:28:22;;;;;;;4.10;1.88;;;;;;;17.24;93.28;101660.78;6249636;28;20040;-76
2021/09/13 13:31:24;;;;;;;3.88;1.90;;;;;;;17.22;93.15;101657.41;6258004;28;20049;-76
2021/09/13 13:34:27;;;;;;;3.38;2.03;;;;;;;17.30;93.26;101656.84;6265196;28;20045;-75
2021/09/13 13:37:29;;;;;;;3.72;1.67;;;;;;;17.36;93.83;101645.84;6261023;28;20115;-76
2021/09/13 13:40:32;;;;;;;1.98;1.38;;;;;;;17.43;93.54;101647.13;6271056;28;20045;-76
2021/09/13 13:43:33;;;;;;;2.63;1.50;;;;;;;17.48;93.75;101650.31;6269211;28;20045;-76
2021/09/13 13:46:34;;;;;;;2.22;1.60;;;;;;;17.47;92.30;101647.75;6270683;28;20508;-77
2021/09/13 13:49:36;;;;;;;2.35;1.50;;;;;;;17.45;91.19;101642.56;6271657;28;20049;-76
2021/09/13 13:52:39;;;;;;;2.05;1.10;;;;;;;17.43;91.46;101647.13;6265200;28;20455;-76
2021/09/13 13:55:41;;;;;;;1.52;1.17;;;;;;;17.44;92.08;101643.53;6264374;28;20041;-76
2021/09/13 13:58:42;;;;;;;1.98;1.20;;;;;;;17.44;91.95;101646.19;6266894;28;20060;-76
2021/09/13 14:01:43;;;;;;;2.15;1.30;;;;;;;17.48;90.66;101638.81;6270414;28;20048;-76
2021/09/13 14:04:45;;;;;;;3.28;1.30;;;;;;;17.49;91.22;101636.09;6270526;28;20057;-76